Time;durP1;ratioP1;P1;durP2;ratioP2;P2;SDS_P1;SDS_P2;PMS_P1;PMS_P2;Temp;Humidity;BMP_temperature;BMP_pressure;BME280_temperature;BME280_humidity;BME280_pressure;Samples;Min_cycle;Max_cycle;Signal;HPM_P1;HPM_P2
2023/06/24 00:02:17;;;;;;;4.82;2.40;;;19.80;99.90;;;;;;5033033;28;20703;-67
2023/06/24 00:04:43;;;;;;;5.18;2.10;;;19.70;99.90;;;;;;5031796;28;20104;-67
2023/06/24 00:07:09;;;;;;;5.65;2.03;;;19.60;99.90;;;;;;5032639;28;20033;-67
2023/06/24 00:09:35;;;;;;;4.40;2.47;;;19.40;99.90;;;;;;5031671;28;20037;-67
2023/06/24 00:12:02;;;;;;;4.47;2.25;;;19.30;99.90;;;;;;5032881;28;20157;-67
2023/06/24 00:14:28;;;;;;;9.73;2.42;;;19.40;99.90;;;;;;5032713;28;20141;-67
2023/06/24 00:16:56;;;;;;;5.47;2.60;;;19.30;99.90;;;;;;5032722;28;20132;-67
2023/06/24 00:19:28;;;;;;;5.80;2.70;;;19.40;99.90;;;;;;5048056;28;20477;-67
2023/06/24 00:21:54;;;;;;;5.28;2.50;;;19.40;99.90;;;;;;5032596;28;20115;-66
2023/06/24 00:24:25;;;;;;;4.28;2.00;;;19.20;99.90;;;;;;5032539;28;20549;-66
2023/06/24 00:26:54;;;;;;;;;;;19.30;99.90;;;;;;5031677;28;20044;-73
2023/06/24 00:29:21;;;;;;;5.00;2.30;;;19.30;99.90;;;;;;5032296;28;19924;-52
2023/06/24 00:31:47;;;;;;;4.03;2.40;;;19.20;99.90;;;;;;5030872;28;20473;-53
2023/06/24 00:34:13;;;;;;;6.20;2.70;;;19.20;99.90;;;;;;5014747;28;20037;-52
2023/06/24 00:36:39;;;;;;;5.90;2.90;;;19.20;99.90;;;;;;5031014;28;20041;-52
2023/06/24 00:39:05;;;;;;;5.07;2.63;;;19.10;99.90;;;;;;5032027;28;20385;-53
2023/06/24 00:41:33;;;;;;;5.05;2.30;;;19.10;99.90;;;;;;5032035;28;20133;-51
2023/06/24 00:43:59;;;;;;;5.30;2.28;;;19.10;99.90;;;;;;5031195;28;20033;-51
2023/06/24 00:46:26;;;;;;;6.43;2.70;;;19.00;99.90;;;;;;5014389;28;20112;-53
2023/06/24 00:48:56;;;;;;;9.50;3.00;;;18.90;99.90;;;;;;5013409;28;20038;-53
2023/06/24 00:51:30;;;;;;;5.07;2.70;;;18.50;99.90;;;;;;5012145;28;20041;-53
2023/06/24 00:53:59;;;;;;;4.15;2.47;;;18.50;99.90;;;;;;5012394;28;20026;-53
2023/06/24 00:56:31;;;;;;;7.93;2.90;;;18.20;99.90;;;;;;5012463;28;20525;-53
2023/06/24 00:59:02;;;;;;;8.00;2.95;;;18.20;99.90;;;;;;5012218;28;20038;-51
2023/06/24 01:01:35;;;;;;;6.43;2.53;;;18.30;99.90;;;;;;5046550;28;20025;-52
2023/06/24 01:04:03;;;;;;;3.40;1.67;;;18.40;99.90;;;;;;5028950;28;20025;-50
2023/06/24 01:06:29;;;;;;;5.43;2.08;;;18.30;99.90;;;;;;5024936;28;20039;-52
2023/06/24 01:09:00;;;;;;;6.55;2.60;;;18.20;99.90;;;;;;5029827;28;20507;-52
2023/06/24 01:11:30;;;;;;;4.65;2.60;;;18.10;99.90;;;;;;5031078;28;20444;-48
2023/06/24 01:13:57;;;;;;;5.22;3.10;;;18.20;99.90;;;;;;5031355;28;20067;-49
2023/06/24 01:16:41;;;;;;;7.85;2.83;;;18.30;99.90;;;;;;5031463;28;20026;-52
2023/06/24 01:19:26;;;;;;;11.00;2.53;;;18.30;99.90;;;;;;5046927;28;20037;-51
2023/06/24 01:22:47;;;;;;;4.18;2.05;;;18.40;99.90;;;;;;5031413;28;20077;-49
2023/06/24 01:25:41;;;;;;;6.78;3.00;;;18.40;99.90;;;;;;5024010;28;20451;-47
2023/06/24 01:28:12;;;;;;;5.07;2.13;;;18.50;99.90;;;;;;5031134;28;20037;-51
2023/06/24 01:30:50;;;;;;;4.90;1.85;;;18.40;99.90;;;;;;5030916;28;20481;-52
2023/06/24 01:33:26;;;;;;;6.47;3.35;;;18.30;99.90;;;;;;5031134;28;20052;-49
2023/06/24 01:35:54;;;;;;;4.32;2.75;;;18.30;99.90;;;;;;4997693;28;20044;-48
2023/06/24 01:38:41;;;;;;;5.32;2.75;;;18.30;99.90;;;;;;5031021;28;20125;-49
2023/06/24 01:41:09;;;;;;;3.95;2.00;;;18.10;99.90;;;;;;5029527;28;20061;-45
2023/06/24 01:43:37;;;;;;;5.22;2.58;;;18.10;99.90;;;;;;5031052;28;20052;-52
2023/06/24 01:46:05;;;;;;;4.15;2.45;;;18.00;99.90;;;;;;5029889;28;20031;-51
2023/06/24 01:48:36;;;;;;;6.00;2.40;;;18.00;99.90;;;;;;5029663;28;20145;-50
2023/06/24 01:51:15;;;;;;;5.80;2.30;;;18.00;99.90;;;;;;5030880;28;20464;-50
2023/06/24 01:53:48;;;;;;;6.05;2.40;;;18.00;99.90;;;;;;5029628;28;20057;-50
2023/06/24 01:56:16;;;;;;;5.50;2.17;;;18.00;99.90;;;;;;5030027;28;20392;-52
2023/06/24 01:58:44;;;;;;;5.53;2.45;;;18.00;99.90;;;;;;5029504;28;20091;-52
2023/06/24 02:01:12;;;;;;;5.72;2.40;;;18.00;99.90;;;;;;5029313;28;20037;-52
2023/06/24 02:03:41;;;;;;;4.35;2.33;;;18.00;99.90;;;;;;5029360;28;20025;-51
2023/06/24 02:06:09;;;;;;;6.13;2.40;;;17.80;99.90;;;;;;5029399;28;20546;-51
2023/06/24 02:08:37;;;;;;;3.97;1.70;;;17.90;99.90;;;;;;5029320;28;20124;-51
2023/06/24 02:11:05;;;;;;;10.98;2.83;;;17.80;99.90;;;;;;5029278;28;20477;-49
2023/06/24 02:13:35;;;;;;;5.25;2.55;;;17.50;99.90;;;;;;5029362;28;20029;-48
2023/06/24 02:16:03;;;;;;;5.47;2.35;;;17.60;99.90;;;;;;5029199;28;20026;-51
2023/06/24 02:18:29;;;;;;;4.38;2.33;;;17.60;99.90;;;;;;5013302;28;20029;-48
2023/06/24 02:20:56;;;;;;;4.90;2.47;;;17.50;99.90;;;;;;5030389;28;20613;-51
2023/06/24 02:23:23;;;;;;;5.95;2.75;;;17.70;99.90;;;;;;5029536;28;20037;-52
2023/06/24 02:25:50;;;;;;;5.25;2.45;;;17.70;99.90;;;;;;5029283;28;20041;-49
2023/06/24 02:28:18;;;;;;;4.30;2.03;;;17.70;99.90;;;;;;5029090;28;20034;-48
2023/06/24 02:30:45;;;;;;;4.80;2.58;;;17.60;99.90;;;;;;5030254;28;20109;-50
2023/06/24 02:33:11;;;;;;;5.00;2.35;;;17.60;99.90;;;;;;5033715;28;20068;-49
2023/06/24 02:35:38;;;;;;;4.95;2.60;;;17.60;99.90;;;;;;5034647;28;20040;-50
2023/06/24 02:38:04;;;;;;;7.13;2.55;;;17.60;99.90;;;;;;5032758;28;20030;-51
2023/06/24 02:40:30;;;;;;;4.78;2.30;;;17.60;99.90;;;;;;5034446;28;20026;-53
2023/06/24 02:42:59;;;;;;;5.55;2.40;;;17.30;99.90;;;;;;5033307;28;20033;-52
2023/06/24 02:45:26;;;;;;;6.78;2.88;;;17.30;99.90;;;;;;5049802;28;20040;-48
2023/06/24 02:47:53;;;;;;;5.07;2.47;;;17.30;99.90;;;;;;5049393;28;20037;-50
2023/06/24 02:50:21;;;;;;;4.38;2.20;;;17.20;99.90;;;;;;5016286;28;20034;-49
2023/06/24 02:52:47;;;;;;;6.05;2.35;;;17.00;99.90;;;;;;5034241;28;20038;-50
2023/06/24 02:55:14;;;;;;;4.32;2.70;;;16.90;99.90;;;;;;5034073;28;20444;-52
2023/06/24 02:57:41;;;;;;;5.60;2.25;;;16.90;99.90;;;;;;5033137;28;20074;-47
2023/06/24 03:00:14;;;;;;;5.25;2.65;;;16.80;99.90;;;;;;5032719;28;20040;-47
2023/06/24 03:02:42;;;;;;;6.15;3.28;;;16.80;99.90;;;;;;5030264;28;20048;-48
2023/06/24 03:05:09;;;;;;;4.75;2.35;;;16.90;99.90;;;;;;5032117;28;20033;-51
2023/06/24 03:07:37;;;;;;;5.38;2.58;;;16.90;99.90;;;;;;5033412;28;20073;-48
2023/06/24 03:10:05;;;;;;;5.78;2.63;;;17.00;99.90;;;;;;5015901;23;20058;-42
2023/06/24 03:12:31;;;;;;;5.70;2.97;;;16.90;99.90;;;;;;4990878;28;20165;-45
2023/06/24 03:14:57;;;;;;;4.32;2.13;;;16.90;99.90;;;;;;4993218;28;20022;-42
2023/06/24 03:17:24;;;;;;;3.97;2.33;;;16.70;99.90;;;;;;4994213;28;20038;-46
2023/06/24 03:19:50;;;;;;;5.18;2.72;;;16.80;99.90;;;;;;4993935;28;20034;-46
2023/06/24 03:22:17;;;;;;;6.05;2.63;;;16.80;99.90;;;;;;4994437;28;20142;-43
2023/06/24 03:24:43;;;;;;;6.25;2.80;;;16.70;99.90;;;;;;4994382;28;20439;-42
2023/06/24 03:27:09;;;;;;;3.65;2.25;;;16.70;99.90;;;;;;4994200;28;20041;-44
2023/06/24 03:29:34;;;;;;;6.50;3.45;;;16.90;99.90;;;;;;4993571;28;20108;-45
2023/06/24 03:32:00;;;;;;;4.30;2.30;;;16.70;99.90;;;;;;4994191;28;20114;-44
2023/06/24 03:34:27;;;;;;;8.85;2.83;;;16.60;99.90;;;;;;4994018;28;20030;-43
2023/06/24 03:36:54;;;;;;;5.57;2.92;;;16.70;99.90;;;;;;4994111;28;20036;-46
2023/06/24 03:39:20;;;;;;;4.90;2.40;;;16.70;99.90;;;;;;5006129;28;20046;-52
2023/06/24 03:41:46;;;;;;;6.35;3.42;;;16.50;99.90;;;;;;5013413;28;20482;-49
2023/06/24 03:44:13;;;;;;;6.38;2.97;;;16.60;99.90;;;;;;5012077;28;20120;-50
2023/06/24 03:46:38;;;;;;;5.05;2.50;;;16.40;99.90;;;;;;5013359;28;20068;-50
2023/06/24 03:49:04;;;;;;;4.68;2.72;;;16.50;99.90;;;;;;5013117;28;20065;-48
2023/06/24 03:51:30;;;;;;;7.55;2.95;;;16.70;99.90;;;;;;5012844;28;20054;-42
2023/06/24 03:53:56;;;;;;;4.45;2.65;;;16.90;99.90;;;;;;4995755;28;20036;-44
2023/06/24 03:56:22;;;;;;;4.35;2.38;;;17.20;99.90;;;;;;5013216;28;20108;-42
2023/06/24 03:58:48;;;;;;;5.38;3.10;;;17.40;99.90;;;;;;5013269;28;20118;-43
2023/06/24 04:01:14;;;;;;;4.18;2.42;;;17.30;99.90;;;;;;4979384;28;20049;-43
2023/06/24 04:03:39;;;;;;;6.97;2.70;;;17.10;99.90;;;;;;4993404;28;20030;-43
2023/06/24 04:06:05;;;;;;;5.65;2.85;;;17.00;99.90;;;;;;4993420;28;20359;-52
2023/06/24 04:08:31;;;;;;;7.70;2.63;;;16.80;99.90;;;;;;4992175;28;20347;-46
2023/06/24 04:11:03;;;;;;;8.38;3.13;;;16.90;99.90;;;;;;4993105;28;20058;-46
2023/06/24 04:13:29;;;;;;;6.43;3.13;;;17.00;99.90;;;;;;4993165;28;20026;-48
2023/06/24 04:15:55;;;;;;;11.43;2.60;;;17.10;99.90;;;;;;4993119;28;20039;-44
2023/06/24 04:18:21;;;;;;;4.30;2.33;;;17.10;99.90;;;;;;4991864;28;20465;-45
2023/06/24 04:20:47;;;;;;;5.30;3.17;;;17.30;99.90;;;;;;4993303;28;20030;-45
2023/06/24 04:23:14;;;;;;;5.45;2.78;;;17.30;99.90;;;;;;4993112;28;20482;-46
2023/06/24 04:25:40;;;;;;;6.07;2.03;;;17.40;99.90;;;;;;4993297;28;20042;-46
2023/06/24 04:28:06;;;;;;;4.88;2.00;;;17.40;99.90;;;;;;4993043;28;20034;-46
2023/06/24 04:30:35;;;;;;;4.35;2.28;;;17.40;99.90;;;;;;4991161;28;20049;-46
2023/06/24 04:33:01;;;;;;;4.43;2.40;;;17.60;99.90;;;;;;4991655;28;20022;-43
2023/06/24 04:35:27;;;;;;;5.15;2.95;;;17.70;99.90;;;;;;4992735;28;20475;-47
2023/06/24 04:37:52;;;;;;;8.38;2.75;;;17.80;99.90;;;;;;4993622;28;20038;-48
2023/06/24 04:40:19;;;;;;;14.50;5.68;;;17.90;99.90;;;;;;5011787;28;20171;-45
2023/06/24 04:42:45;;;;;;;6.13;2.97;;;17.90;99.90;;;;;;5010736;28;20038;-46
2023/06/24 04:45:11;;;;;;;5.47;2.55;;;18.00;99.90;;;;;;4992421;28;20164;-45
2023/06/24 04:47:37;;;;;;;4.70;2.03;;;18.10;99.90;;;;;;4991477;28;20058;-46
2023/06/24 04:50:04;;;;;;;5.18;2.58;;;18.10;99.90;;;;;;4992242;28;20034;-49
2023/06/24 04:52:30;;;;;;;6.75;2.42;;;18.00;99.90;;;;;;4991306;28;20479;-49
2023/06/24 04:54:55;;;;;;;5.18;2.95;;;18.20;99.90;;;;;;4992140;28;20053;-46
2023/06/24 04:57:28;;;;;;;8.02;2.55;;;18.10;99.90;;;;;;4992463;28;20026;-48
2023/06/24 04:59:55;;;;;;;6.38;2.78;;;18.30;99.90;;;;;;4991996;28;20030;-46
2023/06/24 05:02:21;;;;;;;5.72;2.10;;;18.20;99.90;;;;;;4995916;28;20033;-42
2023/06/24 05:04:46;;;;;;;4.82;2.17;;;18.20;99.90;;;;;;4999215;28;20034;-51
2023/06/24 05:07:12;;;;;;;7.55;2.30;;;18.40;99.90;;;;;;4974154;28;20030;-46
2023/06/24 05:09:38;;;;;;;4.32;2.17;;;18.50;99.90;;;;;;4992547;28;20038;-49
2023/06/24 05:12:05;;;;;;;3.88;2.13;;;18.50;99.90;;;;;;4991753;28;20064;-48
2023/06/24 05:14:31;;;;;;;4.68;2.15;;;18.40;99.90;;;;;;4973790;28;20030;-62
2023/06/24 05:16:57;;;;;;;5.63;2.53;;;18.40;99.90;;;;;;4992144;28;20453;-62
2023/06/24 05:19:23;;;;;;;4.80;2.53;;;18.60;99.90;;;;;;4991742;28;20030;-61
2023/06/24 05:21:48;;;;;;;4.55;2.50;;;18.50;99.90;;;;;;4991606;28;20058;-62
2023/06/24 05:24:14;;;;;;;5.72;2.53;;;18.30;99.90;;;;;;4990497;28;20022;-62
2023/06/24 05:26:40;;;;;;;6.57;2.83;;;18.30;99.90;;;;;;4992048;28;20030;-61
2023/06/24 05:29:06;;;;;;;4.47;2.60;;;18.50;99.90;;;;;;4991648;28;20045;-61
2023/06/24 05:31:32;;;;;;;6.15;2.83;;;18.50;99.90;;;;;;4991501;28;20038;-61
2023/06/24 05:33:57;;;;;;;4.50;2.72;;;18.60;99.90;;;;;;4991534;28;20053;-61
2023/06/24 05:36:23;;;;;;;7.88;3.40;;;18.80;99.90;;;;;;4991786;28;20031;-61
2023/06/24 05:38:49;;;;;;;6.93;3.00;;;18.80;99.90;;;;;;4991568;28;20030;-62
2023/06/24 05:41:15;;;;;;;5.78;3.47;;;18.90;99.90;;;;;;4991499;28;20041;-61
2023/06/24 05:43:43;;;;;;;5.22;2.95;;;19.00;99.90;;;;;;4991792;28;20038;-61
2023/06/24 05:46:09;;;;;;;5.03;2.42;;;19.00;99.90;;;;;;4990227;28;20121;-61
2023/06/24 05:48:35;;;;;;;6.65;3.50;;;19.30;99.90;;;;;;4991184;28;20149;-61
2023/06/24 05:51:01;;;;;;;9.10;3.60;;;19.20;99.90;;;;;;4991251;28;20033;-62
2023/06/24 05:53:26;;;;;;;6.18;2.83;;;19.30;99.90;;;;;;4991635;28;20035;-62
2023/06/24 05:55:52;;;;;;;7.43;2.47;;;19.40;99.90;;;;;;4991450;28;20058;-61
2023/06/24 05:58:18;;;;;;;4.60;2.50;;;19.50;99.90;;;;;;4991652;28;20113;-61
2023/06/24 06:00:43;;;;;;;4.03;2.20;;;19.60;99.90;;;;;;4995041;28;20080;-61
2023/06/24 06:03:09;;;;;;;6.30;2.80;;;19.80;99.90;;;;;;4991462;28;20672;-61
2023/06/24 06:05:35;;;;;;;5.13;2.33;;;19.90;99.90;;;;;;4973977;28;20030;-62
2023/06/24 06:08:01;;;;;;;6.28;2.90;;;19.90;99.90;;;;;;4990822;28;20034;-61
2023/06/24 06:10:26;;;;;;;5.07;2.30;;;20.10;99.90;;;;;;4990681;28;20096;-62
2023/06/24 06:12:53;;;;;;;15.38;6.55;;;20.00;99.90;;;;;;4991250;28;20026;-62
2023/06/24 06:15:19;;;;;;;8.68;4.38;;;20.10;99.90;;;;;;4991048;28;20027;-61
2023/06/24 06:17:46;;;;;;;9.90;3.53;;;20.10;99.90;;;;;;4989914;28;20125;-62
2023/06/24 06:20:12;;;;;;;6.25;2.95;;;20.20;99.90;;;;;;4990841;28;20042;-47
2023/06/24 06:22:38;;;;;;;6.05;3.08;;;20.40;99.90;;;;;;4973981;28;20037;-42
2023/06/24 06:25:07;;;;;;;9.45;3.03;;;20.50;99.90;;;;;;4991203;28;20026;-46
2023/06/24 06:27:33;;;;;;;6.10;2.22;;;20.60;99.90;;;;;;4989646;28;20042;-49
2023/06/24 06:29:59;;;;;;;4.80;2.45;;;20.80;99.90;;;;;;4989406;28;20023;-47
2023/06/24 06:32:25;;;;;;;6.32;2.50;;;20.90;99.90;;;;;;4989497;28;20478;-45
2023/06/24 06:34:51;;;;;;;3.95;1.85;;;21.00;99.90;;;;;;4995116;28;20038;-49
2023/06/24 06:37:17;;;;;;;5.10;1.95;;;21.10;99.90;;;;;;4996591;28;20022;-50
2023/06/24 06:39:42;;;;;;;6.03;2.30;;;21.20;99.90;;;;;;4999592;28;20049;-46
2023/06/24 06:42:08;;;;;;;3.67;1.70;;;21.20;99.90;;;;;;4992810;28;20387;-47
2023/06/24 06:44:34;;;;;;;2.92;1.70;;;21.30;99.90;;;;;;4987119;28;20035;-61
2023/06/24 06:47:00;;;;;;;7.93;1.80;;;21.10;99.90;;;;;;4985679;28;20054;-61
2023/06/24 06:49:25;;;;;;;3.78;1.60;;;21.20;99.90;;;;;;4990548;28;20053;-61
2023/06/24 06:51:55;;;;;;;2.97;1.60;;;21.20;99.90;;;;;;4992246;28;20113;-61
2023/06/24 06:54:20;;;;;;;5.15;1.50;;;21.30;99.90;;;;;;4988601;28;20022;-61
2023/06/24 06:56:46;;;;;;;4.57;2.00;;;21.40;99.90;;;;;;4989818;28;20069;-61
2023/06/24 06:59:12;;;;;;;3.70;1.85;;;21.40;99.90;;;;;;4990690;28;20039;-60
2023/06/24 07:01:38;;;;;;;7.72;2.50;;;21.40;99.90;;;;;;4990630;28;20023;-61
2023/06/24 07:04:03;;;;;;;4.47;1.90;;;21.60;99.90;;;;;;4990583;28;20042;-61
2023/06/24 07:06:32;;;;;;;3.47;1.80;;;21.60;99.90;;;;;;4990573;28;20053;-60
2023/06/24 07:08:58;;;;;;;5.00;2.08;;;21.70;99.90;;;;;;4990408;28;20564;-61
2023/06/24 07:11:24;;;;;;;5.88;1.95;;;21.60;99.90;;;;;;4990138;28;20034;-61
2023/06/24 07:13:51;;;;;;;4.47;2.15;;;21.50;99.90;;;;;;4990469;28;20080;-61
2023/06/24 07:16:18;;;;;;;5.30;2.58;;;21.70;99.90;;;;;;4994228;28;20030;-62
2023/06/24 07:18:44;;;;;;;8.02;2.60;;;21.70;99.90;;;;;;4992900;28;20030;-62
2023/06/24 07:21:09;;;;;;;7.03;1.95;;;21.60;99.90;;;;;;4993832;28;20561;-62
2023/06/24 07:23:35;;;;;;;3.72;1.98;;;21.60;99.90;;;;;;4992657;28;20118;-62
2023/06/24 07:26:01;;;;;;;23.05;10.88;;;21.70;99.90;;;;;;4994105;28;20516;-61
2023/06/24 07:28:27;;;;;;;6.85;3.58;;;21.90;99.90;;;;;;4993684;28;20109;-62
2023/06/24 07:30:52;;;;;;;5.72;2.90;;;22.00;99.90;;;;;;4993535;28;20034;-62
2023/06/24 07:33:19;;;;;;;5.43;2.58;;;22.10;99.90;;;;;;4993740;28;20407;-61
2023/06/24 07:35:44;;;;;;;5.00;2.30;;;22.20;99.90;;;;;;4993876;28;20662;-63
2023/06/24 07:38:10;;;;;;;5.57;2.20;;;22.20;99.90;;;;;;4994036;28;20065;-61
2023/06/24 07:40:36;;;;;;;4.10;2.40;;;22.30;99.90;;;;;;4992210;28;20618;-60
2023/06/24 07:43:01;;;;;;;4.90;2.00;;;22.40;99.90;;;;;;4992666;28;20837;-69
2023/06/24 07:45:27;;;;;;;4.30;1.95;;;22.50;99.90;;;;;;4993452;28;20031;-72
2023/06/24 07:47:53;;;;;;;5.80;2.35;;;22.60;99.90;;;;;;4993474;28;20054;-72
2023/06/24 07:50:19;;;;;;;3.47;1.63;;;22.60;99.70;;;;;;4992570;28;20075;-72
2023/06/24 07:52:44;;;;;;;4.78;2.15;;;22.70;99.60;;;;;;4993717;28;20076;-72
2023/06/24 07:55:11;;;;;;;4.05;2.05;;;22.80;99.90;;;;;;4993597;28;20095;-72
2023/06/24 07:57:37;;;;;;;4.22;2.03;;;22.80;99.90;;;;;;4993510;28;20070;-71
2023/06/24 08:00:09;;;;;;;5.45;2.65;;;22.90;99.70;;;;;;4992189;28;20437;-71
2023/06/24 08:02:34;;;;;;;4.25;2.25;;;23.00;99.50;;;;;;4993032;28;20471;-72
2023/06/24 08:05:00;;;;;;;7.18;2.33;;;23.00;98.90;;;;;;4993430;28;20041;-71
2023/06/24 08:07:26;;;;;;;3.88;2.17;;;23.00;99.00;;;;;;4992059;28;20045;-70
2023/06/24 08:09:52;;;;;;;6.38;2.17;;;22.90;98.90;;;;;;4992942;28;20026;-71
2023/06/24 08:12:18;;;;;;;3.47;1.73;;;23.10;98.70;;;;;;4993032;28;20026;-71
2023/06/24 08:14:43;;;;;;;3.50;2.05;;;23.10;98.80;;;;;;4999367;28;20025;-71
2023/06/24 08:17:09;;;;;;;5.22;3.00;;;23.10;98.70;;;;;;5012998;28;20037;-72
2023/06/24 08:19:35;;;;;;;4.43;1.83;;;23.00;98.90;;;;;;5012474;28;20030;-71
2023/06/24 08:22:00;;;;;;;5.80;2.60;;;23.10;98.80;;;;;;5012525;28;20070;-71
2023/06/24 08:24:26;;;;;;;4.57;1.95;;;23.20;98.70;;;;;;4995055;28;20049;-72
2023/06/24 08:26:53;;;;;;;5.07;2.28;;;23.40;98.50;;;;;;5012721;28;20037;-72
2023/06/24 08:29:18;;;;;;;5.65;2.17;;;23.60;98.30;;;;;;5011904;28;20060;-72
2023/06/24 08:31:44;;;;;;;3.92;1.58;;;23.80;98.10;;;;;;5012153;28;20443;-72
2023/06/24 08:34:10;;;;;;;3.28;1.85;;;23.80;98.20;;;;;;5012636;28;20049;-72
2023/06/24 08:36:37;;;;;;;3.40;1.70;;;23.90;97.90;;;;;;5012399;28;20088;-72
2023/06/24 08:39:02;;;;;;;3.97;1.60;;;24.20;96.90;;;;;;5012427;28;20034;-72
2023/06/24 08:41:28;;;;;;;4.70;1.70;;;24.20;96.20;;;;;;5012079;28;20040;-72
2023/06/24 08:43:54;;;;;;;2.53;1.27;;;24.20;95.70;;;;;;5009504;28;20048;-71
2023/06/24 08:46:21;;;;;;;4.07;2.10;;;24.20;95.40;;;;;;5010617;28;20494;-72
2023/06/24 08:48:50;;;;;;;3.63;1.80;;;24.30;95.30;;;;;;4994507;28;20033;-72
2023/06/24 08:51:24;;;;;;;5.43;1.95;;;24.40;95.10;;;;;;4988952;28;20077;-72
2023/06/24 08:53:50;;;;;;;3.75;1.85;;;24.20;95.10;;;;;;4971901;28;20026;-73
2023/06/24 08:56:16;;;;;;;3.33;1.48;;;24.40;95.50;;;;;;4971567;28;20463;-72
2023/06/24 08:58:42;;;;;;;5.55;2.03;;;24.40;94.50;;;;;;4971868;28;20038;-71
2023/06/24 09:01:09;;;;;;;3.58;1.80;;;24.50;94.40;;;;;;4972464;28;20114;-73
2023/06/24 09:03:35;;;;;;;3.22;1.65;;;24.60;94.20;;;;;;4955394;28;20423;-72
2023/06/24 09:06:01;;;;;;;2.92;1.40;;;24.70;93.60;;;;;;4972831;28;20034;-72
2023/06/24 09:08:26;;;;;;;3.20;1.55;;;24.80;93.30;;;;;;4971218;28;20100;-72
2023/06/24 09:10:55;;;;;;;3.83;1.88;;;24.80;93.50;;;;;;5050251;23;20103;-70
2023/06/24 09:13:27;;;;;;;4.38;1.40;;;24.80;93.50;;;;;;5031235;28;20132;-70
2023/06/24 09:15:52;;;;;;;6.00;2.38;;;24.70;93.40;;;;;;5013669;28;20048;-70
2023/06/24 09:18:18;;;;;;;2.10;1.13;;;24.90;93.00;;;;;;5031546;28;20473;-70
2023/06/24 09:20:49;;;;;;;3.28;1.25;;;25.20;93.00;;;;;;5030803;28;20025;-70
2023/06/24 09:23:16;;;;;;;4.40;1.60;;;25.40;92.40;;;;;;5013765;28;20029;-69
2023/06/24 09:25:42;;;;;;;3.67;1.70;;;25.50;92.10;;;;;;5031241;28;20037;-70
2023/06/24 09:28:08;;;;;;;5.15;1.35;;;25.40;92.30;;;;;;5029529;28;20485;-70
2023/06/24 09:30:34;;;;;;;5.50;2.00;;;25.20;91.90;;;;;;5030237;28;20044;-70
2023/06/24 09:32:59;;;;;;;2.97;1.30;;;25.50;92.20;;;;;;5027229;28;20036;-71
2023/06/24 09:35:26;;;;;;;2.55;1.20;;;26.00;91.90;;;;;;5029864;28;20400;-71
2023/06/24 09:38:01;;;;;;;4.18;1.80;;;26.20;91.40;;;;;;5029515;28;20044;-71
2023/06/24 09:40:27;;;;;;;3.90;1.98;;;26.40;91.20;;;;;;5028853;28;20037;-71
2023/06/24 09:43:02;;;;;;;2.70;1.40;;;26.50;90.30;;;;;;5009541;28;20405;-71
2023/06/24 09:45:29;;;;;;;2.78;1.20;;;26.50;90.50;;;;;;5022730;28;20033;-71
2023/06/24 09:48:00;;;;;;;2.88;1.50;;;26.10;90.20;;;;;;5029974;28;20037;-71
2023/06/24 09:50:26;;;;;;;7.75;1.88;;;26.20;90.60;;;;;;5028691;28;20040;-71
2023/06/24 09:52:56;;;;;;;3.17;1.52;;;26.30;90.20;;;;;;5029043;28;20033;-71
2023/06/24 09:55:22;;;;;;;4.80;1.98;;;26.40;89.70;;;;;;5028821;28;20032;-71
2023/06/24 09:57:52;;;;;;;4.53;2.03;;;26.30;90.10;;;;;;5029014;28;20513;-71
2023/06/24 10:00:21;;;;;;;4.32;1.70;;;26.30;89.60;;;;;;5028243;28;20505;-71
2023/06/24 10:02:48;;;;;;;2.60;1.45;;;25.90;89.90;;;;;;5029648;28;20426;-71
2023/06/24 10:05:15;;;;;;;3.55;1.70;;;26.00;90.20;;;;;;5012282;28;20063;-71
2023/06/24 10:07:41;;;;;;;3.25;1.90;;;25.90;89.90;;;;;;5028636;28;20029;-71
2023/06/24 10:10:09;;;;;;;4.57;1.83;;;26.10;89.50;;;;;;5028351;28;20116;-71
2023/06/24 10:12:35;;;;;;;3.50;1.50;;;26.10;88.40;;;;;;5045393;28;20040;-70
2023/06/24 10:15:02;;;;;;;3.60;1.67;;;26.10;88.70;;;;;;5032782;28;20085;-73
2023/06/24 10:17:27;;;;;;;2.10;1.48;;;26.30;88.00;;;;;;5030715;28;20040;-75
2023/06/24 10:19:56;;;;;;;2.65;1.20;;;26.50;88.30;;;;;;5030379;28;20033;-73
2023/06/24 10:22:28;;;;;;;2.88;1.55;;;26.60;88.40;;;;;;5025289;28;20037;-77
2023/06/24 10:24:54;;;;;;;5.95;1.77;;;26.90;86.90;;;;;;5010228;28;20456;-73
2023/06/24 10:27:23;;;;;;;3.63;1.60;;;27.20;86.20;;;;;;5011486;28;20030;-74
2023/06/24 10:29:55;;;;;;;3.78;1.73;;;27.50;85.10;;;;;;5019533;28;20033;-77
2023/06/24 10:32:23;;;;;;;5.35;2.15;;;27.60;84.00;;;;;;5023630;28;20037;-72
2023/06/24 10:34:56;;;;;;;3.55;1.63;;;27.50;84.10;;;;;;5030330;28;20028;-74
2023/06/24 10:37:24;;;;;;;2.90;1.50;;;27.60;83.00;;;;;;5030512;28;20432;-74
2023/06/24 10:39:55;;;;;;;4.47;2.00;;;27.80;82.90;;;;;;5044776;28;20026;-68
2023/06/24 10:42:26;;;;;;;2.88;1.40;;;27.80;82.70;;;;;;5045276;28;20029;-73
2023/06/24 10:44:55;;;;;;;2.90;1.38;;;27.80;83.10;;;;;;5029585;28;20046;-72
2023/06/24 10:47:23;;;;;;;3.03;1.27;;;27.40;82.30;;;;;;5028810;28;20030;-73
2023/06/24 10:49:49;;;;;;;2.53;1.25;;;27.70;82.90;;;;;;5028657;28;20037;-73
2023/06/24 10:52:22;;;;;;;4.88;1.33;;;28.30;82.30;;;;;;5028745;28;20369;-71
2023/06/24 10:54:49;;;;;;;5.07;1.80;;;28.40;80.70;;;;;;5033219;28;20024;-72
2023/06/24 10:57:20;;;;;;;3.42;1.67;;;28.60;78.40;;;;;;5032771;28;20029;-73
2023/06/24 10:59:51;;;;;;;;;;;28.50;78.10;;;;;;5032837;28;20043;-74
2023/06/24 11:02:20;;;;;;;3.63;1.45;;;27.90;77.40;;;;;;5033954;28;19913;-72
2023/06/24 11:04:48;;;;;;;2.17;1.13;;;28.40;78.70;;;;;;5033780;28;20032;-74
2023/06/24 11:07:16;;;;;;;2.20;1.30;;;28.90;76.10;;;;;;5033571;28;20057;-71
2023/06/24 11:09:47;;;;;;;2.78;1.30;;;29.40;76.00;;;;;;5033200;28;20030;-71
2023/06/24 11:12:13;;;;;;;3.67;1.48;;;29.60;75.00;;;;;;5015316;28;20033;-74
2023/06/24 11:14:40;;;;;;;2.60;1.38;;;30.00;72.40;;;;;;5019054;28;20025;-69
2023/06/24 11:17:06;;;;;;;3.13;1.42;;;29.40;71.00;;;;;;5038643;28;20036;-68
2023/06/24 11:19:32;;;;;;;2.05;1.23;;;29.30;69.90;;;;;;5032017;28;20037;-69
2023/06/24 11:22:02;;;;;;;1.90;1.13;;;29.30;68.10;;;;;;5051272;28;20500;-69
2023/06/24 11:24:28;;;;;;;2.25;1.20;;;28.90;68.30;;;;;;5052064;28;20040;-71
2023/06/24 11:26:55;;;;;;;3.42;1.30;;;28.70;68.70;;;;;;5053506;28;20040;-70
2023/06/24 11:29:20;;;;;;;3.13;1.38;;;28.90;70.50;;;;;;5051659;28;20029;-69
2023/06/24 11:31:46;;;;;;;3.70;1.48;;;29.60;70.40;;;;;;5046306;28;20048;-71
2023/06/24 11:34:12;;;;;;;2.80;1.17;;;29.80;68.50;;;;;;5033271;28;20386;-70
2023/06/24 11:36:38;;;;;;;2.17;1.20;;;29.60;67.60;;;;;;5033032;28;20079;-70
2023/06/24 11:39:04;;;;;;;1.98;0.90;;;30.10;67.50;;;;;;5048698;28;20041;-69
2023/06/24 11:41:29;;;;;;;2.58;1.33;;;29.60;65.90;;;;;;5047722;28;20039;-69
2023/06/24 11:43:58;;;;;;;2.38;1.15;;;29.60;66.80;;;;;;5033134;28;20029;-69
2023/06/24 11:46:28;;;;;;;3.45;1.90;;;29.90;65.70;;;;;;5012075;28;20030;-69
2023/06/24 11:49:08;;;;;;;3.22;1.25;;;30.30;66.00;;;;;;5012898;28;20025;-70
2023/06/24 11:51:36;;;;;;;4.15;1.50;;;30.10;66.10;;;;;;5011771;28;20121;-69
2023/06/24 11:54:05;;;;;;;3.25;1.30;;;30.20;66.30;;;;;;4995571;28;20026;-69
2023/06/24 11:56:39;;;;;;;2.05;1.23;;;30.20;64.50;;;;;;5021267;28;20040;-69
2023/06/24 11:59:17;;;;;;;3.60;1.45;;;30.30;64.40;;;;;;5052928;28;20037;-69
2023/06/24 12:01:44;;;;;;;5.20;1.50;;;30.50;64.90;;;;;;5051637;28;20029;-69
2023/06/24 12:04:14;;;;;;;3.45;1.60;;;30.70;65.10;;;;;;5051342;28;20476;-69
2023/06/24 12:06:41;;;;;;;2.92;1.13;;;31.20;63.90;;;;;;5051556;28;20673;-69
2023/06/24 12:09:08;;;;;;;2.75;1.40;;;31.50;64.20;;;;;;5052548;28;20040;-69
2023/06/24 12:11:35;;;;;;;2.47;1.15;;;31.40;63.30;;;;;;5038820;28;20026;-69
2023/06/24 12:14:00;;;;;;;2.00;1.10;;;30.80;61.70;;;;;;5048031;28;20033;-69
2023/06/24 12:16:26;;;;;;;2.72;1.25;;;30.80;62.60;;;;;;5033567;28;20034;-69
2023/06/24 12:18:53;;;;;;;2.88;1.20;;;30.80;63.80;;;;;;5029311;28;20115;-69
2023/06/24 12:21:19;;;;;;;2.25;1.17;;;30.80;61.50;;;;;;5030662;28;20029;-69
2023/06/24 12:23:45;;;;;;;2.90;1.27;;;30.40;62.80;;;;;;5031423;28;20026;-68
2023/06/24 12:26:11;;;;;;;2.35;1.15;;;30.50;63.50;;;;;;5031915;28;20048;-68
2023/06/24 12:28:37;;;;;;;2.15;1.30;;;30.00;63.20;;;;;;5031478;28;20034;-69
2023/06/24 12:31:03;;;;;;;5.28;1.10;;;29.40;63.60;;;;;;5030100;28;20087;-71
2023/06/24 12:33:30;;;;;;;5.00;1.50;;;29.60;64.80;;;;;;5030092;28;20426;-69
2023/06/24 12:35:56;;;;;;;3.63;1.17;;;29.50;64.60;;;;;;5027380;28;20033;-68
2023/06/24 12:38:21;;;;;;;2.92;1.55;;;30.00;64.60;;;;;;5029336;28;20025;-67
2023/06/24 12:40:48;;;;;;;5.60;1.35;;;30.60;64.70;;;;;;5029009;28;20074;-68
2023/06/24 12:43:14;;;;;;;1.65;1.05;;;30.70;62.70;;;;;;5030742;28;20026;-68
2023/06/24 12:45:44;;;;;;;2.95;1.42;;;31.10;62.10;;;;;;5030835;28;20033;-67
2023/06/24 12:48:11;;;;;;;2.70;1.40;;;31.10;61.90;;;;;;5037560;28;20035;-69
2023/06/24 12:50:37;;;;;;;2.38;1.23;;;31.10;62.50;;;;;;5025231;28;20469;-68